createdAt,value
2023-03-05T00:02:30.294Z,100010.75
2023-03-05T00:09:21.443Z,100009.59
2023-03-05T00:12:44.024Z,100003.50
2023-03-05T00:16:07.443Z,100013.91
2023-03-05T00:19:30.237Z,100014.81
2023-03-05T00:22:53.019Z,100016.06
2023-03-05T00:26:17.415Z,100010.13
2023-03-05T00:29:40.054Z,100013.72
2023-03-05T00:33:04.079Z,100017.28
2023-03-05T00:36:26.679Z,100018.16
2023-03-05T00:39:49.094Z,100021.53
2023-03-05T00:43:13.257Z,100014.75
2023-03-05T00:46:35.866Z,100013.06
2023-03-05T00:49:58.992Z,100009.66
2023-03-05T00:53:21.787Z,100010.81
2023-03-05T00:56:45.065Z,100011.22
2023-03-05T01:00:11.781Z,100011.44
2023-03-05T01:03:34.595Z,100008.84
2023-03-05T01:06:57.404Z,100008.78
2023-03-05T01:10:19.851Z,100013.00
2023-03-05T01:13:46.085Z,100007.69
2023-03-05T01:17:11.057Z,100005.22
2023-03-05T01:20:33.589Z,100000.00
2023-03-05T01:23:56.074Z,100002.28
2023-03-05T01:27:19.095Z,100006.00
2023-03-05T01:30:41.540Z,100009.81
2023-03-05T01:34:06.180Z,100018.38
2023-03-05T01:37:28.609Z,100016.44
2023-03-05T01:40:51.085Z,100019.81
2023-03-05T01:44:23.100Z,100011.28
2023-03-05T01:47:45.977Z,100010.72
2023-03-05T01:51:09.738Z,100010.41
2023-03-05T01:54:35.001Z,100008.56
2023-03-05T01:57:59.553Z,100009.75
2023-03-05T02:01:22.488Z,100016.09
2023-03-05T02:04:47.532Z,100008.12
2023-03-05T02:08:12.364Z,100012.69
2023-03-05T02:11:35.325Z,100006.84
2023-03-05T02:14:59.510Z,100008.97
2023-03-05T02:18:22.098Z,100016.13
2023-03-05T02:21:47.057Z,100010.66
2023-03-05T02:25:17.978Z,100007.06
2023-03-05T02:28:41.768Z,99993.94
2023-03-05T02:32:04.410Z,100007.41
2023-03-05T02:35:27.375Z,100000.53
2023-03-05T02:38:53.008Z,100011.78
2023-03-05T02:42:16.627Z,100012.16
2023-03-05T02:45:39.385Z,100011.66
2023-03-05T02:49:02.518Z,100006.41
2023-03-05T02:52:25.648Z,100009.44
2023-03-05T02:55:50.198Z,100005.44
2023-03-05T02:59:12.743Z,100004.91
2023-03-05T03:02:38.946Z,100006.22
2023-03-05T03:06:01.204Z,100010.22
2023-03-05T03:09:23.875Z,100005.31
2023-03-05T03:12:47.756Z,100006.47
2023-03-05T03:16:11.722Z,100008.69
2023-03-05T03:19:33.933Z,100004.59
2023-03-05T03:22:56.392Z,99994.34
2023-03-05T03:26:19.378Z,99995.34
2023-03-05T03:29:43.305Z,99999.63
2023-03-05T03:33:05.755Z,99989.69
2023-03-05T03:36:28.259Z,99998.66
2023-03-05T03:39:50.713Z,99986.84
2023-03-05T03:43:13.103Z,99995.19
2023-03-05T03:46:37.444Z,99995.06
2023-03-05T03:50:00.456Z,99992.06
2023-03-05T03:53:22.848Z,99987.72
2023-03-05T03:56:45.940Z,99988.81
2023-03-05T04:00:10.250Z,99991.81
2023-03-05T04:03:35.727Z,99985.84
2023-03-05T04:06:58.614Z,99991.41
2023-03-05T04:10:21.497Z,99990.19
2023-03-05T04:13:44.421Z,99987.09
2023-03-05T04:17:06.885Z,99989.44
2023-03-05T04:20:30.983Z,99992.03
2023-03-05T04:23:53.459Z,99991.13
2023-03-05T04:27:15.939Z,99977.69
2023-03-05T04:30:38.117Z,99979.56
2023-03-05T04:34:00.871Z,99982.59
2023-03-05T04:37:24.824Z,99984.19
2023-03-05T04:40:47.647Z,99986.34
2023-03-05T04:44:10.169Z,99980.16
2023-03-05T04:47:32.693Z,99978.94
2023-03-05T04:50:55.184Z,99978.34
2023-03-05T04:54:19.141Z,99981.41
2023-03-05T04:57:41.797Z,99979.47
2023-03-05T05:01:04.726Z,99981.97
2023-03-05T05:04:27.026Z,99984.47
2023-03-05T05:07:49.835Z,99986.09
2023-03-05T05:11:14.945Z,99985.13
2023-03-05T05:14:37.735Z,99990.62
2023-03-05T05:18:00.241Z,99990.19
2023-03-05T05:21:22.845Z,99990.50
2023-03-05T05:24:45.197Z,99985.13
2023-03-05T05:28:08.991Z,99990.81
2023-03-05T05:31:31.313Z,99988.53
2023-03-05T05:34:55.665Z,99991.38
2023-03-05T05:38:18.184Z,99991.56
2023-03-05T05:41:43.426Z,100001.34
2023-03-05T05:45:08.263Z,99999.47
2023-03-05T05:48:31.168Z,100004.41
2023-03-05T05:51:53.412Z,100002.31
2023-03-05T05:55:15.937Z,100009.50
2023-03-05T05:58:38.606Z,100012.31
2023-03-05T06:02:02.640Z,100011.91
2023-03-05T06:05:25.925Z,100016.09
2023-03-05T06:08:47.974Z,100012.88
2023-03-05T06:12:11.397Z,100014.53
2023-03-05T06:15:34.057Z,100016.41
2023-03-05T06:18:59.073Z,100006.84
2023-03-05T06:22:21.501Z,100026.47
2023-03-05T06:25:44.427Z,100023.16
2023-03-05T06:29:06.916Z,100038.19
2023-03-05T06:32:29.453Z,100024.28
2023-03-05T06:35:53.491Z,100023.75
2023-03-05T06:39:16.475Z,100024.78
2023-03-05T06:42:39.044Z,100031.13
2023-03-05T06:46:05.087Z,100024.03
2023-03-05T06:49:27.422Z,100026.03
2023-03-05T06:52:52.053Z,100022.31
2023-03-05T06:56:16.750Z,100029.75
2023-03-05T06:59:39.245Z,100030.22
2023-03-05T07:03:01.620Z,100029.22
2023-03-05T07:06:24.289Z,100029.56
2023-03-05T07:09:50.376Z,100035.94
2023-03-05T07:13:13.442Z,100030.16
2023-03-05T07:16:36.165Z,100027.56
2023-03-05T07:19:59.107Z,100029.91
2023-03-05T07:23:21.242Z,100025.78
2023-03-05T07:26:45.843Z,100027.28
2023-03-05T07:30:10.744Z,100029.22
2023-03-05T07:33:33.708Z,100029.72
2023-03-05T07:36:56.265Z,100024.13
2023-03-05T07:40:19.533Z,100021.41
2023-03-05T07:43:43.193Z,100022.75
2023-03-05T07:47:06.110Z,100017.34
2023-03-05T07:50:28.870Z,100023.81
2023-03-05T07:53:51.787Z,100016.84
2023-03-05T07:57:16.108Z,100018.91
2023-03-05T08:00:40.643Z,100015.50
2023-03-05T08:04:04.053Z,100018.16
2023-03-05T08:07:26.333Z,100021.59
2023-03-05T08:10:48.803Z,100014.22
2023-03-05T08:14:11.730Z,100011.91
2023-03-05T08:17:35.872Z,100011.13
2023-03-05T08:20:58.488Z,100013.75
2023-03-05T08:24:20.993Z,100009.91
2023-03-05T08:27:44.072Z,100014.31
2023-03-05T08:31:10.245Z,100008.69
2023-03-05T08:34:36.472Z,100015.53
2023-03-05T08:37:59.134Z,100017.72
2023-03-05T08:41:21.794Z,100018.56
2023-03-05T08:44:46.512Z,100019.09
2023-03-05T08:48:08.851Z,100013.59
2023-03-05T08:51:33.281Z,100017.78
2023-03-05T08:54:55.776Z,100011.13
2023-03-05T08:58:18.931Z,100020.22
2023-03-05T09:01:41.658Z,100015.34
2023-03-05T09:05:04.938Z,100012.78
2023-03-05T09:08:29.115Z,100007.09
2023-03-05T09:11:52.124Z,100006.28
2023-03-05T09:15:14.953Z,100005.84
2023-03-05T09:18:40.189Z,100010.56
2023-03-05T09:22:02.354Z,100005.63
2023-03-05T09:25:26.298Z,100006.81
2023-03-05T09:28:49.244Z,100005.94
2023-03-05T09:32:12.003Z,99994.84
2023-03-05T09:35:35.798Z,99998.50
2023-03-05T09:38:58.832Z,99987.28
2023-03-05T09:42:29.860Z,99987.06
2023-03-05T09:46:07.433Z,99982.25
2023-03-05T09:49:33.984Z,99974.28
2023-03-05T09:52:57.495Z,99989.19
2023-03-05T09:56:22.227Z,99976.47
2023-03-05T09:59:48.482Z,99978.16
2023-03-05T10:03:14.466Z,99973.81
2023-03-05T10:06:37.657Z,99980.81
2023-03-05T10:10:01.144Z,99972.88
2023-03-05T10:13:25.672Z,99969.56
2023-03-05T10:17:01.477Z,99966.38
2023-03-05T10:20:36.617Z,99961.44
2023-03-05T10:24:02.297Z,99962.22
2023-03-05T10:27:34.040Z,99955.41
2023-03-05T10:31:10.164Z,99953.34
2023-03-05T10:34:46.178Z,99938.47
2023-03-05T10:38:36.916Z,99934.75
2023-03-05T10:42:06.186Z,99933.66
2023-03-05T10:45:31.708Z,99929.84
2023-03-05T10:48:56.186Z,99921.19
2023-03-05T10:52:22.233Z,99915.13
2023-03-05T10:55:45.682Z,99899.47
2023-03-05T10:59:08.869Z,99911.75
2023-03-05T11:02:31.673Z,99909.84
2023-03-05T11:06:00.556Z,99901.28
2023-03-05T11:09:29.244Z,99897.72
2023-03-05T11:12:52.286Z,99893.72
2023-03-05T11:16:20.865Z,99896.09
2023-03-05T11:19:44.608Z,99886.75
2023-03-05T11:23:11.932Z,99899.09
2023-03-05T11:26:36.626Z,99890.34
2023-03-05T11:30:00.285Z,99884.06
2023-03-05T11:33:24.050Z,99888.25
2023-03-05T11:37:03.664Z,99889.41
2023-03-05T11:40:27.809Z,99885.28
2023-03-05T11:43:53.576Z,99881.91
2023-03-05T11:47:21.853Z,99878.06
2023-03-05T11:50:50.114Z,99865.03
2023-03-05T11:54:15.917Z,99858.59
2023-03-05T11:57:43.211Z,99858.22
2023-03-05T12:01:08.111Z,99860.97
2023-03-05T12:04:32.247Z,99854.13
2023-03-05T12:07:57.425Z,99852.00
2023-03-05T12:11:25.572Z,99846.66
2023-03-05T12:14:50.212Z,99843.97
2023-03-05T12:18:29.025Z,99824.97
2023-03-05T12:21:52.604Z,99831.66
2023-03-05T12:25:26.977Z,99819.00
2023-03-05T12:28:58.188Z,99825.50
2023-03-05T12:33:01.604Z,99825.41
2023-03-05T12:36:40.837Z,99818.47
2023-03-05T12:40:15.879Z,99813.88
2023-03-05T12:43:38.650Z,99819.41
2023-03-05T12:47:23.768Z,99802.16
2023-03-05T12:50:53.291Z,99802.47
2023-03-05T12:54:40.538Z,99798.28
2023-03-05T12:58:05.246Z,99795.25
2023-03-05T13:01:33.990Z,99786.31
2023-03-05T13:04:59.569Z,99784.31
2023-03-05T13:08:24.614Z,99786.06
2023-03-05T13:11:50.880Z,99772.56
2023-03-05T13:15:16.882Z,99771.53
2023-03-05T13:18:40.950Z,99769.12
2023-03-05T13:22:08.390Z,99768.72
2023-03-05T13:25:31.923Z,99767.63
2023-03-05T13:29:12.094Z,99770.19
2023-03-05T13:32:35.922Z,99769.12
2023-03-05T13:36:02.490Z,99772.13
2023-03-05T13:39:29.774Z,99774.81
2023-03-05T13:42:56.420Z,99761.41
2023-03-05T13:46:29.687Z,99763.22
2023-03-05T13:50:00.210Z,99758.84
2023-03-05T13:53:25.142Z,99755.06
2023-03-05T13:56:54.893Z,99760.84
2023-03-05T14:00:33.649Z,99770.75
2023-03-05T14:04:01.234Z,99744.16
2023-03-05T14:07:31.124Z,99757.00
2023-03-05T14:10:54.702Z,99749.25
2023-03-05T14:14:19.178Z,99748.38
2023-03-05T14:17:43.382Z,99748.75
2023-03-05T14:21:11.648Z,99746.16
2023-03-05T14:24:35.878Z,99742.91
2023-03-05T14:27:59.532Z,99735.84
2023-03-05T14:31:24.127Z,99735.44
2023-03-05T14:34:50.723Z,99745.81
2023-03-05T14:38:20.876Z,99750.00
2023-03-05T14:41:45.133Z,99747.75
2023-03-05T14:45:16.344Z,99748.87
2023-03-05T14:48:40.661Z,99745.34
2023-03-05T14:52:07.240Z,99741.13
2023-03-05T14:55:33.635Z,99734.22
2023-03-05T14:58:58.116Z,99722.59
2023-03-05T15:02:24.587Z,99708.69
2023-03-05T15:05:50.687Z,99709.47
2023-03-05T15:09:18.241Z,99704.31
2023-03-05T15:12:47.269Z,99705.59
2023-03-05T15:16:14.737Z,99719.63
2023-03-05T15:19:40.220Z,99730.50
2023-03-05T15:23:04.850Z,99717.06
2023-03-05T15:26:29.904Z,99726.91
2023-03-05T15:29:58.554Z,99716.91
2023-03-05T15:33:24.439Z,99730.44
2023-03-05T15:36:48.347Z,99730.59
2023-03-05T15:40:14.009Z,99724.41
2023-03-05T15:43:39.169Z,99728.22
2023-03-05T15:47:06.364Z,99724.50
2023-03-05T15:50:31.348Z,99747.06
2023-03-05T15:53:58.580Z,99730.88
2023-03-05T15:57:23.387Z,99735.78
2023-03-05T16:00:49.570Z,99730.28
2023-03-05T16:04:17.483Z,99733.69
2023-03-05T16:07:46.214Z,99740.66
2023-03-05T16:11:11.359Z,99748.44
2023-03-05T16:14:39.115Z,99748.25
2023-03-05T16:18:05.052Z,99743.78
2023-03-05T16:21:32.921Z,99742.03
2023-03-05T16:24:57.505Z,99745.62
2023-03-05T16:28:21.057Z,99758.03
2023-03-05T16:31:46.122Z,99743.13
2023-03-05T16:35:12.569Z,99756.25
2023-03-05T16:38:39.257Z,99760.91
2023-03-05T16:42:05.079Z,99751.25
2023-03-05T16:45:29.710Z,99768.25
2023-03-05T16:48:54.905Z,99756.91
2023-03-05T16:52:23.426Z,99760.41
2023-03-05T16:55:51.429Z,99764.00
2023-03-05T16:59:16.656Z,99770.25
2023-03-05T17:02:42.793Z,99767.59
2023-03-05T17:06:11.597Z,99773.25
2023-03-05T17:09:40.852Z,99774.56
2023-03-05T17:13:07.236Z,99776.00
2023-03-05T17:16:32.628Z,99778.88
2023-03-05T17:19:57.850Z,99776.88
2023-03-05T17:23:22.846Z,99772.66
2023-03-05T17:26:49.682Z,99775.38
2023-03-05T17:30:16.177Z,99776.47
2023-03-05T17:33:42.629Z,99781.22
2023-03-05T17:37:08.189Z,99788.75
2023-03-05T17:40:34.986Z,99791.72
2023-03-05T17:44:03.521Z,99786.31
2023-03-05T17:47:33.328Z,99800.16
2023-03-05T17:50:57.415Z,99799.56
2023-03-05T17:54:22.547Z,99796.28
2023-03-05T17:57:48.575Z,99790.06
2023-03-05T18:01:14.560Z,99793.34
2023-03-05T18:04:41.606Z,99793.25
2023-03-05T18:08:06.629Z,99793.34
2023-03-05T18:11:32.128Z,99795.56
2023-03-05T18:14:59.957Z,99789.75
2023-03-05T18:18:28.829Z,99791.41
2023-03-05T18:21:56.869Z,99784.00
2023-03-05T18:25:22.151Z,99789.31
2023-03-05T18:28:47.733Z,99784.81
2023-03-05T18:32:13.824Z,99777.25
2023-03-05T18:35:39.639Z,99785.91
2023-03-05T18:39:09.196Z,99774.84
2023-03-05T18:42:34.584Z,99777.81
2023-03-05T18:45:59.162Z,99774.81
2023-03-05T18:49:24.189Z,99775.09
2023-03-05T18:52:54.401Z,99775.03
2023-03-05T18:56:23.594Z,99779.16
2023-03-05T18:59:49.309Z,99768.91
2023-03-05T19:03:15.124Z,99766.34
2023-03-05T19:06:40.540Z,99775.53
2023-03-05T19:10:08.959Z,99777.41
2023-03-05T19:13:40.371Z,99774.63
2023-03-05T19:17:06.531Z,99773.97
2023-03-05T19:20:31.470Z,99783.94
2023-03-05T19:23:55.954Z,99770.84
2023-03-05T19:27:20.810Z,99770.91
2023-03-05T19:30:49.564Z,99783.28
2023-03-05T19:34:14.716Z,99781.06
2023-03-05T19:37:41.064Z,99785.81
2023-03-05T19:41:10.225Z,99786.09
2023-03-05T19:44:35.757Z,99776.03
2023-03-05T19:48:05.864Z,99777.22
2023-03-05T19:51:31.160Z,99782.63
2023-03-05T19:55:00.227Z,99775.59
2023-03-05T19:58:23.962Z,99779.69
2023-03-05T20:01:49.126Z,99790.69
2023-03-05T20:05:23.667Z,99777.94
2023-03-05T20:08:48.254Z,99778.25
2023-03-05T20:12:16.843Z,99778.06
2023-03-05T20:15:40.564Z,99774.81
2023-03-05T20:19:06.679Z,99777.09
2023-03-05T20:22:33.030Z,99775.34
2023-03-05T20:25:58.384Z,99770.19
2023-03-05T20:29:25.586Z,99769.94
2023-03-05T20:32:52.242Z,99762.25
2023-03-05T20:36:17.750Z,99763.22
2023-03-05T20:39:47.256Z,99768.34
2023-03-05T20:43:13.370Z,99773.25
2023-03-05T20:46:40.594Z,99765.41
2023-03-05T20:50:07.946Z,99767.72
2023-03-05T20:53:33.580Z,99768.16
2023-03-05T20:57:00.676Z,99763.66
2023-03-05T21:00:25.754Z,99755.81
2023-03-05T21:03:50.251Z,99751.63
2023-03-05T21:07:15.031Z,99762.34
2023-03-05T21:10:39.705Z,99765.72
2023-03-05T21:14:05.846Z,99770.47
2023-03-05T21:17:29.845Z,99756.06
2023-03-05T21:20:55.107Z,99759.72
2023-03-05T21:24:24.541Z,99759.66
2023-03-05T21:27:52.572Z,99752.56
2023-03-05T21:31:21.010Z,99760.56
2023-03-05T21:34:52.328Z,99750.25
2023-03-05T21:38:16.032Z,99749.91
2023-03-05T21:41:41.028Z,99749.03
2023-03-05T21:45:05.658Z,99751.69
2023-03-05T21:48:30.325Z,99752.34
2023-03-05T21:52:05.420Z,99751.81
2023-03-05T21:55:33.416Z,99760.69
2023-03-05T21:58:56.208Z,99752.09
2023-03-05T22:02:19.949Z,99747.06
2023-03-05T22:05:44.814Z,99755.28
2023-03-05T22:09:07.563Z,99760.34
2023-03-05T22:12:43.735Z,99757.06
2023-03-05T22:16:09.178Z,99753.56
2023-03-05T22:19:31.918Z,99749.25
2023-03-05T22:22:55.828Z,99742.87
2023-03-05T22:26:18.438Z,99742.09
2023-03-05T22:29:40.877Z,99740.94
2023-03-05T22:33:03.834Z,99737.00
2023-03-05T22:36:26.186Z,99730.94
2023-03-05T22:39:50.143Z,99735.34
2023-03-05T22:43:12.768Z,99728.47
2023-03-05T22:46:35.395Z,99731.31
2023-03-05T22:49:58.490Z,99730.34
2023-03-05T22:53:21.453Z,99738.34
2023-03-05T22:56:45.408Z,99728.22
2023-03-05T23:00:09.294Z,99731.69
2023-03-05T23:03:31.626Z,99731.03
2023-03-05T23:06:57.825Z,99722.03
2023-03-05T23:10:21.286Z,99721.19
2023-03-05T23:13:45.485Z,99716.69
2023-03-05T23:17:07.865Z,99718.44
2023-03-05T23:20:31.649Z,99714.66
2023-03-05T23:23:56.590Z,99708.06
2023-03-05T23:27:19.550Z,99707.62
2023-03-05T23:30:46.526Z,99707.75
2023-03-05T23:34:09.291Z,99708.38
2023-03-05T23:37:31.980Z,99708.72
2023-03-05T23:40:55.738Z,99712.53
2023-03-05T23:44:18.040Z,99710.31
2023-03-05T23:47:41.934Z,99708.38
2023-03-05T23:51:09.291Z,99709.50
2023-03-05T23:54:32.428Z,99706.94
2023-03-05T23:57:55.072Z,99704.84
